White Lake, SD (57383)

7:18 AM CDT on July 07, 2015 (GMT -0500)
Wessington Springs Hills | | Change Station
CLOSE
Current Station
Personal Weather Station
Location: Wessington Springs, SD
Elevation: 1683 ft
Nearby Weather Stations

Elev 1683 ft 44.08 °N, 98.57 °W | Updated 8 minutes ago

Clear
Clear
56.1 °F
Feels Like 56.1 °F
N
0.0
Wind Variable Wind from NE
Gusts 1.0 mph

Today
High -- | Low -- °F
--% Chance of Precip.
Yesterday
High -- | Low -- °F
Precip. -- in
6:00 AM 9:18 PM
Waning Gibbous, 65% visible
Pressure 30.19 in
Visibility 5.0 miles
Clouds Clear
Dew Point 52 °F
Humidity 87%
Rainfall 0.00 in
Snow Depth Not available.
UV 0 out of 12
Pollen 3.60 out of 12
Air Quality Not available.
Flu Activity Not available.
METAR K9V9 071155Z AUTO 08004KT 5SM BR CLR 12/11 A3019 RMK AO2 T01200112 10158 20117

More Conditions Fewer Conditions

Pressure 30.19 in
Visibility 5.0 miles
Clouds Clear
Dew Point 52 °F
Humidity 87%
Rainfall 0.00 in
Snow Depth Not available.
UV 0 out of 12
Pollen 3.60 out of 12
Air Quality Not available.
Flu Activity Not available.
METAR K9V9 071155Z AUTO 08004KT 5SM BR CLR 12/11 A3019 RMK AO2 T01200112 10158 20117

More Conditions Fewer Conditions

10-Day Weather Forecast

×

Almanac

Astronomy

Jul. 07, 2015 Rise Set
Actual Time
Civil Twilight
Nautical Twilight
Astronomical Twilight
Moon
Length of Visible Light
Length of Day
Tomorrow will be .
, % of the Moon is Illuminated

Today's Extremes

State Highs State Lows

Community

WunderPhotos

Upload Photos

1,835,782 photos uploaded!

WunderBlogs® & News

Nearby

Air Quality

  Air Quality AQ Index Pollutant
Not available.

Snow Depth

Station Depth Elevation

Earthquake Activity

City Distance Mag. Time & Date
Minimum magnitude displayed is 2.5.

Coastal Water Temperatures

Place Temperature

Stations

Nearby Weather Stations

Station Location Temp. Windchill Dew Point Humidity Wind Precip. Elev Updated Type